Kenai Fjords National Park, AK

8:52 PM AKDT on July 27, 2016 (GMT -0800)
coastal | | Change Station

Elev 90 ft 60.57 °N, 151.29 °W | Updated 2 minutes ago

Clear
Clear
66.9 °F
Feels Like 66.9 °F
N
2.7
Wind Variable Wind from West

Today
High -- | Low -- °F
--% Chance of Precip.
Yesterday
High -- | Low -- °F
Precip. -- in
Pressure 29.76 in
Visibility 10.0 miles
Clouds Clear
Dew Point 52 °F
Humidity 59%
Rainfall 0.02 in
Snow Depth Not available.
5:31 AM 10:49 PM
Last Quarter, 36% visible
METAR PAEN 280353Z 05013KT 10SM CLR 20/11 A2975 RMK AO2 SLP077 T02000106
Pressure 29.76 in
Visibility 10.0 miles
Clouds Clear
Dew Point 52 °F
Humidity 59%
Rainfall 0.02 in
Snow Depth Not available.
5:31 AM 10:49 PM
Last Quarter, 36% visible
METAR PAEN 280353Z 05013KT 10SM CLR 20/11 A2975 RMK AO2 SLP077 T02000106

10-Day Weather Forecast

Almanac

Astronomy

Jul. 27, 2016 Rise Set
Actual Time
Civil Twilight
Nautical Twilight
Astronomical Twilight
Moon
Length of Visible Light
Length of Day
Tomorrow will be .
, % of the Moon is Illuminated

Today's Extremes

State Highs State Lows

Community

WunderPhotos

Upload Photos

1,928,061 photos uploaded!

WunderBlog® & News

Nearby

Air Quality

  Air Quality AQ Index Pollutant
Not available.

Snow Depth

Station Depth Elevation

Earthquake Activity

City Distance Mag. Time & Date
Minimum magnitude displayed is 2.5.

Coastal Water Temperatures

Place Temperature

Stations

Nearby Weather Stations

Station Location Temp. Windchill Dew Point Humidity Wind Precip. Elev Updated Type
                   

Watches & Warnings

There are currently no watches in effect.